createdAt,value
2019-04-23T00:00:21.734Z,791.40
2019-04-23T00:01:26.823Z,800.50
2019-04-23T00:01:35.112Z,813.20
2019-04-23T00:02:03.743Z,797.30
2019-04-23T00:02:44.227Z,795.00
2019-04-23T00:03:15.139Z,786.30
2019-04-23T00:03:53.422Z,792.80
2019-04-23T00:04:23.764Z,801.70
2019-04-23T00:05:02.134Z,797.60
2019-04-23T00:06:19.059Z,807.00
2019-04-23T00:07:04.048Z,797.00
2019-04-23T00:07:35.563Z,798.30
2019-04-23T00:08:07.863Z,800.50
2019-04-23T00:08:44.831Z,800.80
2019-04-23T00:09:20.498Z,794.40
2019-04-23T00:09:47.016Z,792.20
2019-04-23T00:10:25.238Z,798.90
2019-04-23T00:10:58.752Z,807.70
2019-04-23T00:11:35.679Z,795.10
2019-04-23T00:12:11.972Z,785.00
2019-04-23T00:12:50.937Z,797.20
2019-04-23T00:13:24.670Z,804.50
2019-04-23T00:14:02.892Z,807.90
2019-04-23T00:14:40.406Z,808.20
2019-04-23T00:15:08.907Z,793.80
2019-04-23T00:15:40.947Z,799.60
2019-04-23T00:16:21.504Z,802.40
2019-04-23T00:16:50.341Z,813.20
2019-04-23T00:17:34.655Z,816.00
2019-04-23T00:18:10.155Z,794.70
2019-04-23T00:19:11.635Z,810.00
2019-04-23T00:19:47.316Z,798.10
2019-04-23T00:20:23.538Z,774.00
2019-04-23T00:20:57.736Z,791.20
2019-04-23T00:21:39.024Z,800.20
2019-04-23T00:22:05.609Z,798.80
2019-04-23T00:23:16.293Z,768.60
2019-04-23T00:24:01.500Z,782.70
2019-04-23T00:24:53.410Z,780.70
2019-04-23T00:25:30.755Z,784.60
2019-04-23T00:25:49.722Z,782.50
2019-04-23T00:26:26.832Z,770.70
2019-04-23T00:27:03.799Z,767.80
2019-04-23T00:27:42.618Z,770.00
2019-04-23T00:28:10.109Z,774.20
2019-04-23T00:28:42.228Z,777.00
2019-04-23T00:29:18.569Z,781.60
2019-04-23T00:29:53.188Z,783.20
2019-04-23T00:30:26.509Z,784.10
2019-04-23T00:31:18.494Z,786.90
2019-04-23T00:31:31.655Z,779.10
2019-04-23T00:32:15.707Z,778.20
2019-04-23T00:32:46.164Z,777.90
2019-04-23T00:33:57.780Z,790.20
2019-04-23T00:34:37.465Z,776.20
2019-04-23T00:35:11.363Z,771.10
2019-04-23T00:36:22.953Z,791.30
2019-04-23T00:36:51.759Z,786.40
2019-04-23T00:37:33.210Z,783.70
2019-04-23T00:38:04.679Z,780.10
2019-04-23T00:38:38.420Z,781.60
2019-04-23T00:39:16.706Z,777.60
2019-04-23T00:40:25.864Z,797.10
2019-04-23T00:41:01.650Z,789.50
2019-04-23T00:41:39.201Z,785.30
2019-04-23T00:42:17.431Z,786.20
2019-04-23T00:42:47.810Z,791.00
2019-04-23T00:43:21.882Z,799.90
2019-04-23T00:44:40.398Z,799.30
2019-04-23T00:45:00.210Z,796.10
2019-04-23T00:45:45.633Z,814.70
2019-04-23T00:46:22.269Z,805.10
2019-04-23T00:46:54.421Z,801.60
2019-04-23T00:47:32.939Z,797.10
2019-04-23T00:48:02.031Z,791.20
2019-04-23T00:48:45.511Z,794.50
2019-04-23T00:49:22.746Z,799.00
2019-04-23T00:50:04.315Z,804.60
2019-04-23T00:50:30.376Z,801.10
2019-04-23T00:51:00.109Z,810.00
2019-04-23T00:51:36.375Z,808.40
2019-04-23T00:52:18.701Z,806.40
2019-04-23T00:52:45.686Z,815.80
2019-04-23T00:53:22.089Z,807.80
2019-04-23T00:53:56.848Z,799.50
2019-04-23T00:54:35.737Z,796.50
2019-04-23T00:55:11.081Z,810.40
2019-04-23T00:57:02.042Z,809.20
2019-04-23T00:58:15.805Z,806.90
2019-04-23T00:58:43.285Z,819.90
2019-04-23T00:59:19.453Z,815.20
2019-04-23T01:00:33.701Z,814.90
2019-04-23T01:01:20.788Z,807.20
2019-04-23T01:01:42.829Z,809.90
2019-04-23T01:02:16.645Z,809.90
2019-04-23T01:02:54.731Z,818.00
2019-04-23T01:03:23.002Z,815.80
2019-04-23T01:03:58.247Z,807.00
2019-04-23T01:04:41.935Z,811.80
2019-04-23T01:05:31.129Z,802.70
2019-04-23T01:05:46.665Z,807.80
2019-04-23T01:06:24.118Z,814.80
2019-04-23T01:06:58.398Z,814.20
2019-04-23T01:07:32.985Z,812.80
2019-04-23T01:08:07.165Z,802.40
2019-04-23T01:08:55.202Z,803.90
2019-04-23T01:09:14.220Z,813.80
2019-04-23T01:10:00.867Z,819.30
2019-04-23T01:10:27.108Z,813.80
2019-04-23T01:11:04.715Z,810.50
2019-04-23T01:11:39.374Z,813.00
2019-04-23T01:12:25.161Z,821.20
2019-04-23T01:12:54.358Z,811.30
2019-04-23T01:13:36.315Z,812.30
2019-04-23T01:14:04.340Z,812.10
2019-04-23T01:14:33.990Z,808.50
2019-04-23T01:15:18.943Z,811.00
2019-04-23T01:16:25.118Z,822.10
2019-04-23T01:17:02.198Z,828.10
2019-04-23T01:17:41.260Z,815.20
2019-04-23T01:18:11.008Z,811.80
2019-04-23T01:19:24.534Z,813.70
2019-04-23T01:19:57.713Z,812.80
2019-04-23T01:20:29.188Z,813.10
2019-04-23T01:20:54.533Z,814.90
2019-04-23T01:21:22.267Z,824.40
2019-04-23T01:21:56.148Z,818.20
2019-04-23T01:22:31.721Z,815.50
2019-04-23T01:23:07.448Z,818.90
2019-04-23T01:23:47.184Z,819.90
2019-04-23T01:24:20.305Z,809.10
2019-04-23T01:24:57.536Z,805.40
2019-04-23T01:25:38.750Z,808.00
2019-04-23T01:26:23.927Z,819.50
2019-04-23T01:27:16.713Z,819.40
2019-04-23T01:28:15.927Z,808.30
2019-04-23T01:28:49.760Z,814.40
2019-04-23T01:29:28.347Z,816.60
2019-04-23T01:30:04.657Z,803.70
2019-04-23T01:30:38.824Z,801.00
2019-04-23T01:31:18.610Z,810.00
2019-04-23T01:31:47.931Z,808.80
2019-04-23T01:32:20.914Z,806.20
2019-04-23T01:32:54.614Z,814.00
2019-04-23T01:33:40.750Z,809.00
2019-04-23T01:34:16.720Z,809.20
2019-04-23T01:34:52.054Z,799.60
2019-04-23T01:35:18.915Z,793.70
2019-04-23T01:36:51.632Z,802.90
2019-04-23T01:37:00.835Z,812.90
2019-04-23T01:37:43.144Z,812.30
2019-04-23T01:38:19.347Z,808.90
2019-04-23T01:38:54.752Z,801.00
2019-04-23T01:39:23.296Z,808.20
2019-04-23T01:40:04.212Z,806.90
2019-04-23T01:40:36.438Z,803.00
2019-04-23T01:41:13.135Z,792.60
2019-04-23T01:41:50.683Z,798.00
2019-04-23T01:42:34.038Z,795.20
2019-04-23T01:43:01.707Z,796.20
2019-04-23T01:43:36.525Z,804.60
2019-04-23T01:44:14.410Z,800.00
2019-04-23T01:44:58.021Z,792.90
2019-04-23T01:45:35.626Z,792.10
2019-04-23T01:45:54.611Z,798.50
2019-04-23T01:46:37.310Z,805.00
2019-04-23T01:47:09.123Z,802.20
2019-04-23T01:47:45.355Z,801.80
2019-04-23T01:48:12.858Z,805.20
2019-04-23T01:48:55.178Z,798.10
2019-04-23T01:49:45.045Z,803.10
2019-04-23T01:50:11.336Z,794.40
2019-04-23T01:50:47.081Z,792.20
2019-04-23T01:51:07.901Z,795.20
2019-04-23T01:51:55.707Z,793.80
2019-04-23T01:52:34.450Z,799.90
2019-04-23T01:53:08.569Z,794.80
2019-04-23T01:54:09.179Z,803.50
2019-04-23T01:54:50.020Z,805.30
2019-04-23T01:56:02.502Z,800.50
2019-04-23T01:56:28.717Z,805.60
2019-04-23T01:57:11.113Z,807.80
2019-04-23T01:57:47.322Z,800.40
2019-04-23T01:59:36.735Z,793.30
2019-04-23T02:00:11.667Z,799.60
2019-04-23T02:00:40.999Z,778.80
2019-04-23T02:01:50.425Z,801.10
2019-04-23T02:02:33.326Z,801.10
2019-04-23T02:03:04.379Z,795.70
2019-04-23T02:03:54.397Z,788.10
2019-04-23T02:04:18.872Z,789.80
2019-04-23T02:04:58.862Z,786.70
2019-04-23T02:06:04.767Z,795.90
2019-04-23T02:06:31.687Z,794.70
2019-04-23T02:07:13.957Z,772.50
2019-04-23T02:08:32.030Z,787.80
2019-04-23T02:09:37.095Z,797.60
2019-04-23T02:10:14.226Z,781.10
2019-04-23T02:10:44.274Z,781.50
2019-04-23T02:11:16.473Z,792.70
2019-04-23T02:11:51.373Z,785.10
2019-04-23T02:12:25.732Z,779.60
2019-04-23T02:13:01.827Z,782.50
2019-04-23T02:13:36.953Z,778.30
2019-04-23T02:14:16.377Z,777.40
2019-04-23T02:14:49.875Z,786.90
2019-04-23T02:15:26.486Z,796.90
2019-04-23T02:16:10.637Z,785.10
2019-04-23T02:16:37.375Z,787.90
2019-04-23T02:17:09.995Z,783.30
2019-04-23T02:17:44.317Z,779.20
2019-04-23T02:18:15.725Z,776.10
2019-04-23T02:18:56.762Z,778.00
2019-04-23T02:19:33.248Z,779.20
2019-04-23T02:20:14.142Z,789.30
2019-04-23T02:20:43.070Z,788.90
2019-04-23T02:21:15.394Z,781.30
2019-04-23T02:21:52.763Z,780.40
2019-04-23T02:22:30.927Z,782.40
2019-04-23T02:23:16.570Z,777.90
2019-04-23T02:23:38.075Z,786.50
2019-04-23T02:24:14.492Z,796.10
2019-04-23T02:24:54.091Z,789.40
2019-04-23T02:25:35.634Z,793.70
2019-04-23T02:26:04.740Z,791.20
2019-04-23T02:26:33.922Z,781.70
2019-04-23T02:27:16.898Z,784.50
2019-04-23T02:27:54.382Z,785.10
2019-04-23T02:28:42.008Z,790.50
2019-04-23T02:29:03.691Z,793.30
2019-04-23T02:29:44.635Z,784.40
2019-04-23T02:30:30.036Z,788.70
2019-04-23T02:32:40.260Z,791.10
2019-04-23T02:33:17.635Z,781.50
2019-04-23T02:34:01.267Z,773.40
2019-04-23T02:34:31.357Z,774.90
2019-04-23T02:35:09.983Z,778.00
2019-04-23T02:36:11.349Z,789.50
2019-04-23T02:36:48.244Z,784.90
2019-04-23T02:37:28.585Z,782.80
2019-04-23T02:38:00.589Z,787.70
2019-04-23T02:38:56.127Z,784.40
2019-04-23T02:39:57.354Z,789.00
2019-04-23T02:40:37.992Z,800.90
2019-04-23T02:41:29.619Z,768.10
2019-04-23T02:42:19.159Z,779.40
2019-04-23T02:43:00.883Z,777.40
2019-04-23T02:43:12.971Z,785.80
2019-04-23T02:43:50.984Z,787.80
2019-04-23T02:44:34.971Z,789.60
2019-04-23T02:44:55.879Z,794.70
2019-04-23T02:45:27.059Z,788.50
2019-04-23T02:46:05.415Z,786.20
2019-04-23T02:46:51.662Z,784.80
2019-04-23T02:48:05.712Z,798.00
2019-04-23T02:50:31.414Z,785.10
2019-04-23T02:50:48.769Z,776.50
2019-04-23T02:51:31.128Z,777.10
2019-04-23T02:52:38.869Z,783.20
2019-04-23T02:53:30.778Z,777.10
2019-04-23T02:56:12.165Z,794.70
2019-04-23T02:57:21.524Z,784.10
2019-04-23T02:58:35.191Z,785.20
2019-04-23T02:59:16.382Z,797.90
2019-04-23T02:59:58.268Z,787.00
2019-04-23T03:02:15.461Z,782.00
2019-04-23T03:02:54.700Z,785.60
2019-04-23T03:03:37.881Z,792.20
2019-04-23T03:04:02.395Z,786.20
2019-04-23T03:04:41.445Z,781.90
2019-04-23T03:05:46.637Z,783.40
2019-04-23T03:07:59.833Z,780.10
2019-04-23T03:08:36.362Z,782.70
2019-04-23T03:09:12.917Z,789.50
2019-04-23T03:09:45.494Z,797.10
2019-04-23T03:10:21.016Z,792.60
2019-04-23T03:12:29.472Z,791.60
2019-04-23T03:12:46.946Z,792.10
2019-04-23T03:13:39.193Z,793.30
2019-04-23T03:13:55.547Z,781.50
2019-04-23T03:14:31.138Z,783.90
2019-04-23T03:15:14.925Z,778.20
2019-04-23T03:16:53.178Z,756.20
2019-04-23T03:17:19.054Z,777.90
2019-04-23T03:18:16.098Z,789.00
2019-04-23T03:19:11.321Z,780.90
2019-04-23T03:19:45.823Z,773.70
2019-04-23T03:20:21.873Z,784.90
2019-04-23T03:21:05.752Z,791.80
2019-04-23T03:21:31.326Z,787.80
2019-04-23T03:22:55.968Z,793.50
2019-04-23T03:23:24.922Z,781.50
2019-04-23T03:25:07.234Z,768.60
2019-04-23T03:26:01.932Z,773.40
2019-04-23T03:26:38.253Z,780.00
2019-04-23T03:27:37.325Z,779.00
2019-04-23T03:27:56.212Z,776.90
2019-04-23T03:29:21.862Z,771.70
2019-04-23T03:29:59.691Z,771.00
2019-04-23T03:30:30.185Z,769.90
2019-04-23T03:32:29.472Z,772.80
2019-04-23T03:32:52.725Z,769.60
2019-04-23T03:33:08.271Z,777.90
2019-04-23T03:33:44.096Z,772.40
2019-04-23T03:34:10.992Z,760.40
2019-04-23T03:34:20.855Z,759.60
2019-04-23T03:35:09.564Z,770.10
2019-04-23T03:36:38.361Z,757.90
2019-04-23T03:38:48.313Z,769.70
2019-04-23T03:39:56.716Z,771.20
2019-04-23T03:40:13.765Z,776.90
2019-04-23T03:41:07.095Z,773.70
2019-04-23T03:43:26.046Z,779.30
2019-04-23T03:44:09.345Z,773.20
2019-04-23T03:44:45.072Z,765.50
2019-04-23T03:45:16.340Z,769.20
2019-04-23T03:46:12.387Z,775.30
2019-04-23T03:46:24.193Z,775.60
2019-04-23T03:46:49.847Z,773.70
2019-04-23T03:47:41.033Z,771.30
2019-04-23T03:48:06.046Z,771.30
2019-04-23T03:49:09.774Z,767.50
2019-04-23T03:49:55.388Z,761.10
2019-04-23T03:50:32.192Z,767.50
2019-04-23T03:50:52.260Z,765.70
2019-04-23T03:52:51.065Z,766.40
2019-04-23T03:54:14.561Z,778.50
2019-04-23T03:54:39.738Z,772.90
2019-04-23T03:55:10.341Z,765.30
2019-04-23T03:55:52.072Z,758.20
2019-04-23T03:57:03.341Z,773.50
2019-04-23T03:58:15.883Z,763.30
2019-04-23T03:58:42.425Z,765.00
2019-04-23T03:59:20.309Z,754.60
2019-04-23T03:59:58.328Z,763.90
2019-04-23T04:00:33.337Z,765.40
2019-04-23T04:01:07.160Z,765.70
2019-04-23T04:01:34.424Z,771.80
2019-04-23T04:03:10.936Z,756.30
2019-04-23T04:04:33.407Z,779.20
2019-04-23T04:05:12.023Z,771.40
2019-04-23T04:06:33.794Z,765.10
2019-04-23T04:07:40.250Z,759.50
2019-04-23T04:08:13.916Z,771.80
2019-04-23T04:08:47.413Z,774.00
2019-04-23T04:09:26.168Z,767.20
2019-04-23T04:10:35.664Z,756.80
2019-04-23T04:11:11.245Z,756.80
2019-04-23T04:11:27.291Z,764.20
2019-04-23T04:12:30.025Z,767.40
2019-04-23T04:12:53.296Z,769.10
2019-04-23T04:13:30.860Z,760.60
2019-04-23T04:14:33.851Z,769.70
2019-04-23T04:15:03.845Z,767.50
2019-04-23T04:16:51.689Z,766.80
2019-04-23T04:17:23.706Z,765.80
2019-04-23T04:19:18.365Z,753.70
2019-04-23T04:21:03.286Z,746.20
2019-04-23T04:21:34.370Z,760.00
2019-04-23T04:23:22.745Z,760.00
2019-04-23T04:23:57.672Z,758.70
2019-04-23T04:24:27.629Z,760.40
2019-04-23T04:25:01.644Z,764.20
2019-04-23T04:26:13.270Z,763.50
2019-04-23T04:26:53.893Z,762.90
2019-04-23T04:27:24.148Z,758.00
2019-04-23T04:28:08.467Z,757.50
2019-04-23T04:28:41.975Z,766.00
2019-04-23T04:29:47.212Z,770.90
2019-04-23T04:30:22.190Z,755.50
2019-04-23T04:30:49.376Z,755.30
2019-04-23T04:31:42.320Z,765.00
2019-04-23T04:32:00.569Z,759.60
2019-04-23T04:32:53.282Z,760.60
2019-04-23T04:33:31.568Z,767.50
2019-04-23T04:36:13.929Z,766.60
2019-04-23T04:37:02.295Z,755.60
2019-04-23T04:38:06.158Z,751.30
2019-04-23T04:38:46.886Z,760.30
2019-04-23T04:39:00.663Z,762.90
2019-04-23T04:40:29.309Z,761.70
2019-04-23T04:41:09.625Z,760.80
2019-04-23T04:42:06.237Z,762.10
2019-04-23T04:42:41.805Z,769.50
2019-04-23T04:43:27.029Z,767.60
2019-04-23T04:46:49.927Z,775.30
2019-04-23T04:47:32.321Z,767.40
2019-04-23T04:47:54.130Z,767.70
2019-04-23T04:48:46.438Z,766.90
2019-04-23T04:49:51.052Z,771.20
2019-04-23T04:51:00.777Z,765.10
2019-04-23T04:51:38.906Z,768.80
2019-04-23T04:52:48.866Z,767.80
2019-04-23T04:53:43.816Z,767.50
2019-04-23T04:54:00.999Z,770.80
2019-04-23T04:54:24.520Z,758.10
2019-04-23T04:55:05.352Z,770.70
2019-04-23T04:55:45.595Z,781.10
2019-04-23T04:56:52.706Z,793.30
2019-04-23T04:57:30.179Z,797.00
2019-04-23T04:57:57.997Z,780.20
2019-04-23T04:58:43.913Z,777.80
2019-04-23T04:59:25.760Z,810.40
2019-04-23T04:59:53.857Z,817.50
2019-04-23T05:01:28.369Z,833.60
2019-04-23T05:02:14.510Z,835.00
2019-04-23T05:03:43.355Z,835.00
2019-04-23T05:07:05.481Z,859.10
2019-04-23T05:07:40.306Z,860.00
2019-04-23T05:08:36.737Z,868.40
2019-04-23T05:09:31.831Z,876.40
2019-04-23T05:11:02.056Z,864.60
2019-04-23T05:11:41.013Z,870.70
2019-04-23T05:12:22.986Z,871.40
2019-04-23T05:12:40.968Z,884.20
2019-04-23T05:14:35.513Z,875.70
2019-04-23T05:15:02.715Z,864.10
2019-04-23T05:15:37.205Z,880.60
2019-04-23T05:16:12.469Z,877.80
2019-04-23T05:16:53.282Z,873.60
2019-04-23T05:17:39.712Z,863.10
2019-04-23T05:18:39.882Z,865.70
2019-04-23T05:19:22.268Z,865.50
2019-04-23T05:20:31.960Z,877.80
2019-04-23T05:21:14.147Z,873.80
2019-04-23T05:21:38.739Z,857.90
2019-04-23T05:22:06.582Z,857.80
2019-04-23T05:22:51.052Z,861.80
2019-04-23T05:23:23.086Z,854.70
2019-04-23T05:23:57.342Z,861.20
2019-04-23T05:24:28.703Z,867.50
2019-04-23T05:24:58.545Z,846.20
2019-04-23T05:25:42.915Z,850.80
2019-04-23T05:26:19.288Z,853.10
2019-04-23T05:26:37.573Z,863.70
2019-04-23T05:27:17.866Z,847.50
2019-04-23T05:28:14.557Z,831.90
2019-04-23T05:28:38.773Z,841.30
2019-04-23T05:29:13.165Z,860.00
2019-04-23T05:29:50.705Z,862.80
2019-04-23T05:30:29.226Z,851.80
2019-04-23T05:31:02.357Z,851.80
2019-04-23T05:31:39.128Z,842.20
2019-04-23T05:32:10.008Z,851.00
2019-04-23T05:32:47.382Z,855.90
2019-04-23T05:33:18.541Z,851.40
2019-04-23T05:34:00.307Z,839.70
2019-04-23T05:34:28.859Z,838.20
2019-04-23T05:35:03.179Z,825.80
2019-04-23T05:37:39.405Z,851.20
2019-04-23T05:38:43.278Z,843.40
2019-04-23T05:39:17.004Z,844.20
2019-04-23T05:39:49.894Z,861.20
2019-04-23T05:40:30.699Z,854.50
2019-04-23T05:41:03.964Z,855.10
2019-04-23T05:42:04.345Z,861.30
2019-04-23T05:42:47.582Z,854.30
2019-04-23T05:43:19.369Z,845.80
2019-04-23T05:43:52.631Z,849.30
2019-04-23T05:45:02.825Z,853.30
2019-04-23T05:45:39.976Z,842.10
2019-04-23T05:46:22.274Z,834.10
2019-04-23T05:46:52.386Z,832.50
2019-04-23T05:47:27.399Z,828.90
2019-04-23T05:48:06.784Z,830.00
2019-04-23T05:48:40.369Z,832.10
2019-04-23T05:49:14.197Z,832.40
2019-04-23T05:50:39.245Z,848.70
2019-04-23T05:51:09.634Z,832.10
2019-04-23T05:52:09.578Z,832.60
2019-04-23T05:52:46.389Z,808.20
2019-04-23T05:53:18.408Z,812.80
2019-04-23T05:53:51.281Z,821.20
2019-04-23T05:54:54.784Z,826.40
2019-04-23T05:55:42.681Z,828.20
2019-04-23T05:56:14.818Z,831.00
2019-04-23T05:56:53.880Z,831.80
2019-04-23T05:57:27.154Z,827.00
2019-04-23T05:58:06.416Z,828.30
2019-04-23T05:58:46.891Z,835.20
2019-04-23T05:59:21.598Z,834.70
2019-04-23T05:59:46.884Z,845.80
2019-04-23T06:00:28.868Z,849.00
2019-04-23T06:01:08.638Z,821.80
2019-04-23T06:02:26.318Z,814.40
2019-04-23T06:02:50.227Z,820.10
2019-04-23T06:03:24.880Z,806.50
2019-04-23T06:04:03.932Z,791.60
2019-04-23T06:04:32.632Z,784.60
2019-04-23T06:05:12.607Z,781.10
2019-04-23T06:05:49.727Z,777.80
2019-04-23T06:06:20.239Z,791.30
2019-04-23T06:07:38.957Z,779.50
2019-04-23T06:08:03.520Z,776.30
2019-04-23T06:08:38.582Z,765.70
2019-04-23T06:09:52.131Z,776.30
2019-04-23T06:10:28.609Z,787.00
2019-04-23T06:11:01.913Z,783.10
2019-04-23T06:11:45.774Z,779.00
2019-04-23T06:12:04.525Z,782.90
2019-04-23T06:12:45.459Z,800.40
2019-04-23T06:13:26.950Z,795.70
2019-04-23T06:14:33.935Z,821.30
2019-04-23T06:15:49.207Z,852.50
2019-04-23T06:16:22.370Z,863.80
2019-04-23T06:16:58.996Z,855.50
2019-04-23T06:17:25.431Z,860.00
2019-04-23T06:18:08.117Z,877.30
2019-04-23T06:18:51.565Z,875.30
2019-04-23T06:19:52.955Z,858.80
2019-04-23T06:20:35.037Z,838.90
2019-04-23T06:21:02.497Z,856.20
2019-04-23T06:21:44.353Z,862.10
2019-04-23T06:22:51.128Z,845.00
2019-04-23T06:23:34.166Z,846.10
2019-04-23T06:24:06.264Z,837.40
2019-04-23T06:24:34.354Z,849.70
2019-04-23T06:25:15.076Z,852.40
2019-04-23T06:26:05.371Z,835.50
2019-04-23T06:26:42.933Z,826.90
2019-04-23T06:27:32.291Z,831.10
2019-04-23T06:28:09.415Z,824.10
2019-04-23T06:28:43.690Z,819.90
2019-04-23T06:29:25.753Z,814.60
2019-04-23T06:29:51.520Z,810.60
2019-04-23T06:30:35.301Z,809.50
2019-04-23T06:31:44.006Z,799.80
2019-04-23T06:32:14.428Z,811.50
2019-04-23T06:32:53.682Z,811.50
2019-04-23T06:33:31.034Z,824.80
2019-04-23T06:34:04.170Z,822.80
2019-04-23T06:34:41.638Z,827.10
2019-04-23T06:35:12.008Z,836.20
2019-04-23T06:35:51.604Z,827.50
2019-04-23T06:36:26.011Z,815.40
2019-04-23T06:36:57.136Z,805.10
2019-04-23T06:37:50.010Z,806.30
2019-04-23T06:38:57.302Z,806.40
2019-04-23T06:39:19.287Z,802.30
2019-04-23T06:39:55.464Z,792.40
2019-04-23T06:41:13.169Z,787.70
2019-04-23T06:41:44.506Z,799.10
2019-04-23T06:42:14.141Z,804.40
2019-04-23T06:42:54.808Z,791.00
2019-04-23T06:44:14.430Z,780.20
2019-04-23T06:45:04.830Z,782.90
2019-04-23T06:45:45.354Z,784.50
2019-04-23T06:46:29.081Z,779.60
2019-04-23T06:47:40.996Z,789.30
2019-04-23T06:48:20.311Z,798.60
2019-04-23T06:48:47.322Z,791.90
2019-04-23T06:49:28.453Z,790.20
2019-04-23T06:49:55.573Z,796.40
2019-04-23T06:50:37.836Z,787.50
2019-04-23T06:51:15.896Z,790.70
2019-04-23T06:52:18.319Z,793.70
2019-04-23T06:52:50.696Z,797.50
2019-04-23T06:53:24.600Z,804.50
2019-04-23T06:54:04.403Z,817.60
2019-04-23T06:54:45.428Z,817.30
2019-04-23T06:55:18.448Z,817.80
2019-04-23T06:55:52.000Z,821.00
2019-04-23T06:56:28.409Z,806.70
2019-04-23T06:57:08.741Z,816.40
2019-04-23T06:57:39.772Z,820.60
2019-04-23T06:58:15.704Z,808.90
2019-04-23T06:58:43.661Z,809.00
2019-04-23T06:59:24.546Z,817.70
2019-04-23T06:59:54.659Z,818.10
2019-04-23T07:00:34.165Z,815.40
2019-04-23T07:01:05.305Z,794.50
2019-04-23T07:01:53.086Z,803.40
2019-04-23T07:02:20.083Z,814.40
2019-04-23T07:02:53.844Z,815.30
2019-04-23T07:04:05.229Z,797.80
2019-04-23T07:04:43.400Z,803.80
2019-04-23T07:05:15.760Z,811.30
2019-04-23T07:06:05.025Z,815.00
2019-04-23T07:07:29.739Z,808.00
2019-04-23T07:08:18.522Z,799.30
2019-04-23T07:09:05.305Z,788.50
2019-04-23T07:09:13.687Z,778.00
2019-04-23T07:10:09.791Z,778.90
2019-04-23T07:10:33.335Z,784.60
2019-04-23T07:11:17.126Z,780.10
2019-04-23T07:11:40.219Z,781.10
2019-04-23T07:12:21.969Z,790.40
2019-04-23T07:12:55.760Z,785.00
2019-04-23T07:13:41.321Z,784.90
2019-04-23T07:13:58.788Z,785.60
2019-04-23T07:14:51.944Z,766.30
2019-04-23T07:15:32.182Z,757.00
2019-04-23T07:16:04.608Z,755.10
2019-04-23T07:16:27.665Z,767.00
2019-04-23T07:17:03.835Z,776.00
2019-04-23T07:17:34.541Z,771.40
2019-04-23T07:18:08.650Z,766.30
2019-04-23T07:18:48.897Z,763.50
2019-04-23T07:19:32.345Z,770.30
2019-04-23T07:20:02.676Z,768.20
2019-04-23T07:20:34.625Z,766.00
2019-04-23T07:21:13.242Z,764.00
2019-04-23T07:21:42.002Z,776.40
2019-04-23T07:22:57.044Z,776.20
2019-04-23T07:23:41.665Z,782.60
2019-04-23T07:24:42.041Z,756.10
2019-04-23T07:25:17.531Z,765.90
2019-04-23T07:25:58.742Z,779.60
2019-04-23T07:27:05.843Z,824.80
2019-04-23T07:27:34.678Z,821.10
2019-04-23T07:28:18.003Z,828.20
2019-04-23T07:28:53.290Z,827.20
2019-04-23T07:29:27.576Z,825.00
2019-04-23T07:30:33.339Z,849.00
2019-04-23T07:31:26.557Z,858.10
2019-04-23T07:31:48.307Z,866.00
2019-04-23T07:32:23.040Z,868.60
2019-04-23T07:32:56.619Z,882.50
2019-04-23T07:33:38.280Z,898.90
2019-04-23T07:34:49.426Z,882.80
2019-04-23T07:35:19.445Z,878.30
2019-04-23T07:35:52.283Z,911.80
2019-04-23T07:37:05.205Z,949.60
2019-04-23T07:37:43.178Z,977.60
2019-04-23T07:38:20.414Z,999.90
2019-04-23T07:39:06.331Z,999.90
2019-04-23T07:39:27.256Z,999.90
2019-04-23T07:40:18.032Z,999.90
2019-04-23T07:40:43.001Z,999.90
2019-04-23T07:41:23.731Z,982.00
2019-04-23T07:41:54.828Z,887.80
2019-04-23T07:43:03.197Z,816.60
2019-04-23T07:43:46.249Z,781.70
2019-04-23T07:44:48.539Z,761.20
2019-04-23T07:45:22.259Z,756.00
2019-04-23T07:46:02.433Z,757.40
2019-04-23T07:46:48.169Z,733.30
2019-04-23T07:47:15.675Z,717.30
2019-04-23T07:47:40.031Z,713.50
2019-04-23T07:48:13.151Z,721.90
2019-04-23T07:48:49.120Z,726.50
2019-04-23T07:49:31.170Z,705.10
2019-04-23T07:50:15.849Z,709.60
2019-04-23T07:51:14.091Z,717.80
2019-04-23T07:51:54.056Z,707.40
2019-04-23T07:53:11.421Z,697.30
2019-04-23T07:53:40.791Z,697.20
2019-04-23T07:54:18.927Z,709.50
2019-04-23T07:54:58.802Z,709.20
2019-04-23T07:55:34.458Z,702.70
2019-04-23T07:56:35.783Z,707.90
2019-04-23T07:57:16.281Z,725.80
2019-04-23T07:57:52.169Z,721.90
2019-04-23T07:59:01.240Z,712.50
2019-04-23T07:59:41.355Z,710.50
2019-04-23T08:00:29.811Z,714.40
2019-04-23T08:01:14.162Z,748.30
2019-04-23T08:01:52.359Z,750.50
2019-04-23T08:02:37.138Z,730.40
2019-04-23T08:03:10.946Z,723.60
2019-04-23T08:03:41.978Z,728.80
2019-04-23T08:04:19.754Z,734.70
2019-04-23T08:05:02.543Z,731.00
2019-04-23T08:05:55.412Z,724.00
2019-04-23T08:06:29.643Z,724.30
2019-04-23T08:07:42.307Z,745.90
2019-04-23T08:08:19.160Z,741.80
2019-04-23T08:08:56.894Z,730.60
2019-04-23T08:09:41.616Z,732.50
2019-04-23T08:10:24.269Z,737.90
2019-04-23T08:10:56.853Z,744.10
2019-04-23T08:11:45.878Z,755.50
2019-04-23T08:12:31.924Z,755.40
2019-04-23T08:13:08.521Z,746.00
2019-04-23T08:13:39.846Z,756.10
2019-04-23T08:14:13.938Z,762.50
2019-04-23T08:14:53.479Z,749.30
2019-04-23T08:16:08.923Z,728.10
2019-04-23T08:16:34.299Z,721.20
2019-04-23T08:17:13.942Z,729.50
2019-04-23T08:17:41.476Z,736.30
2019-04-23T08:18:18.099Z,736.70
2019-04-23T08:18:55.643Z,733.50
2019-04-23T08:19:32.313Z,738.50
2019-04-23T08:20:07.374Z,753.30
2019-04-23T08:20:42.550Z,753.10
2019-04-23T08:21:14.731Z,746.70
2019-04-23T08:22:01.957Z,746.90
2019-04-23T08:22:37.225Z,757.90
2019-04-23T08:23:03.881Z,756.80
2019-04-23T08:23:47.235Z,745.20
2019-04-23T08:24:10.200Z,744.90
2019-04-23T08:25:27.067Z,756.50
2019-04-23T08:26:04.116Z,754.80
2019-04-23T08:27:09.997Z,766.80
2019-04-23T08:27:41.832Z,752.10
2019-04-23T08:28:23.017Z,756.10
2019-04-23T08:29:03.605Z,742.50
2019-04-23T08:29:26.840Z,749.90
2019-04-23T08:30:03.304Z,733.80
2019-04-23T08:30:43.449Z,716.40
2019-04-23T08:31:15.173Z,718.00
2019-04-23T08:31:52.306Z,727.90
2019-04-23T08:32:19.030Z,720.60
2019-04-23T08:33:04.333Z,727.90
2019-04-23T08:33:46.852Z,723.00
2019-04-23T08:35:03.078Z,705.70
2019-04-23T08:35:23.161Z,726.60
2019-04-23T08:36:07.277Z,717.40
2019-04-23T08:37:00.499Z,704.70
2019-04-23T08:38:00.940Z,740.80
2019-04-23T08:38:25.954Z,747.10
2019-04-23T08:38:57.110Z,741.70
2019-04-23T08:39:33.921Z,733.30
2019-04-23T08:40:02.516Z,730.30
2019-04-23T08:40:47.287Z,735.30
2019-04-23T08:42:09.563Z,750.30
2019-04-23T08:43:09.133Z,743.40
2019-04-23T08:44:23.969Z,732.40
2019-04-23T08:44:56.401Z,727.50
2019-04-23T08:45:57.836Z,740.30
2019-04-23T08:46:43.420Z,719.20
2019-04-23T08:47:17.078Z,728.80
2019-04-23T08:47:52.506Z,743.90
2019-04-23T08:49:06.500Z,741.50
2019-04-23T08:50:04.313Z,738.40
2019-04-23T08:51:05.552Z,756.10
2019-04-23T08:51:29.419Z,739.80
2019-04-23T08:52:00.313Z,731.00
2019-04-23T08:52:48.847Z,730.70
2019-04-23T08:53:17.748Z,747.00
2019-04-23T08:54:25.284Z,756.60
2019-04-23T08:54:51.975Z,760.00
2019-04-23T08:55:32.573Z,746.80
2019-04-23T08:56:16.991Z,741.50
2019-04-23T08:56:40.915Z,762.70
2019-04-23T08:57:14.556Z,753.20
2019-04-23T08:57:43.981Z,743.10
2019-04-23T08:58:27.391Z,746.30
2019-04-23T08:59:02.317Z,742.20
2019-04-23T09:00:00.386Z,739.20
2019-04-23T09:00:09.284Z,748.10
2019-04-23T09:00:55.255Z,747.80
2019-04-23T09:01:16.549Z,744.30
2019-04-23T09:02:37.455Z,740.80
2019-04-23T09:03:15.063Z,754.40
2019-04-23T09:03:56.117Z,746.20
2019-04-23T09:04:18.434Z,729.90
2019-04-23T09:04:54.151Z,708.20